createdAt,value
2017-08-01T00:00:39.411Z,0
2017-08-01T00:01:51.684Z,0
2017-08-01T00:03:03.137Z,0
2017-08-01T00:04:13.004Z,0
2017-08-01T00:05:22.105Z,0
2017-08-01T00:06:31.109Z,0
2017-08-01T00:07:40.065Z,0
2017-08-01T00:08:49.041Z,0
2017-08-01T00:09:58.040Z,0
2017-08-01T00:11:07.012Z,0
2017-08-01T00:12:16.007Z,0
2017-08-01T00:13:25.001Z,0
2017-08-01T00:14:34.399Z,0
2017-08-01T00:15:43.397Z,0
2017-08-01T00:16:52.380Z,0
2017-08-01T00:18:01.534Z,0
2017-08-01T00:19:10.662Z,0
2017-08-01T00:20:19.822Z,0
2017-08-01T00:21:28.949Z,0
2017-08-01T00:22:37.918Z,0
2017-08-01T00:23:46.939Z,0
2017-08-01T00:24:56.336Z,0
2017-08-01T00:26:05.340Z,0
2017-08-01T00:27:14.406Z,0
2017-08-01T00:28:23.371Z,0
2017-08-01T00:29:32.660Z,0
2017-08-01T00:30:41.636Z,0
2017-08-01T00:31:50.793Z,0
2017-08-01T00:32:59.756Z,0
2017-08-01T00:34:08.940Z,0
2017-08-01T00:35:17.942Z,0
2017-08-01T00:36:27.419Z,0
2017-08-01T00:37:36.390Z,0
2017-08-01T00:38:45.786Z,0
2017-08-01T00:39:54.809Z,0
2017-08-01T00:41:03.901Z,0
2017-08-01T00:42:12.859Z,0
2017-08-01T00:43:22.025Z,0
2017-08-01T00:44:31.192Z,0
2017-08-01T00:45:40.328Z,0
2017-08-01T00:46:49.573Z,0
2017-08-01T00:47:58.644Z,0
2017-08-01T00:49:08.084Z,0
2017-08-01T00:50:17.292Z,0
2017-08-01T00:51:26.272Z,0
2017-08-01T00:52:35.424Z,0
2017-08-01T00:53:44.444Z,0
2017-08-01T00:54:53.533Z,0
2017-08-01T00:56:02.584Z,0
2017-08-01T00:57:11.676Z,0
2017-08-01T00:58:21.141Z,0
2017-08-01T00:59:30.208Z,0
2017-08-01T01:00:39.206Z,0
2017-08-01T01:01:48.168Z,0
2017-08-01T01:02:57.126Z,0
2017-08-01T01:04:06.112Z,0
2017-08-01T01:05:15.076Z,0
2017-08-01T01:06:24.040Z,0
2017-08-01T01:07:32.996Z,0
2017-08-01T01:08:41.950Z,0
2017-08-01T01:09:50.910Z,0
2017-08-01T01:10:59.867Z,0
2017-08-01T01:12:08.825Z,0
2017-08-01T01:13:17.791Z,0
2017-08-01T01:14:26.754Z,0
2017-08-01T01:15:35.717Z,0
2017-08-01T01:16:44.679Z,0
2017-08-01T01:17:53.646Z,0
2017-08-01T01:19:02.609Z,0
2017-08-01T01:20:11.575Z,0
2017-08-01T01:21:20.535Z,0
2017-08-01T01:22:29.495Z,0
2017-08-01T01:23:38.457Z,0
2017-08-01T01:24:47.420Z,0
2017-08-01T01:25:56.373Z,0
2017-08-01T01:27:05.328Z,0
2017-08-01T01:28:14.289Z,0
2017-08-01T01:29:23.571Z,0
2017-08-01T01:30:32.533Z,0
2017-08-01T01:31:41.495Z,0
2017-08-01T01:32:50.469Z,0
2017-08-01T01:33:59.430Z,0
2017-08-01T01:35:08.406Z,0
2017-08-01T01:36:17.688Z,0
2017-08-01T01:37:26.641Z,0
2017-08-01T01:38:35.597Z,0
2017-08-01T01:39:44.556Z,0
2017-08-01T01:40:53.515Z,0
2017-08-01T01:42:02.473Z,0
2017-08-01T01:43:11.433Z,0
2017-08-01T01:44:20.399Z,0
2017-08-01T01:45:29.357Z,0
2017-08-01T01:46:38.315Z,0
2017-08-01T01:47:47.279Z,0
2017-08-01T01:48:56.235Z,0
2017-08-01T01:50:05.523Z,0
2017-08-01T01:51:14.485Z,0
2017-08-01T01:52:23.447Z,0
2017-08-01T01:53:32.421Z,0
2017-08-01T01:54:41.375Z,0
2017-08-01T01:55:50.337Z,0
2017-08-01T01:56:59.306Z,0
2017-08-01T01:58:08.611Z,0
2017-08-01T01:59:17.660Z,0
2017-08-01T02:00:26.946Z,0
2017-08-01T02:01:35.990Z,0
2017-08-01T02:02:44.950Z,0
2017-08-01T02:03:53.903Z,0
2017-08-01T02:05:02.863Z,0
2017-08-01T02:06:11.830Z,0
2017-08-01T02:07:20.788Z,0
2017-08-01T02:08:29.754Z,0
2017-08-01T02:09:39.028Z,0
2017-08-01T02:10:47.984Z,0
2017-08-01T02:11:57.266Z,0
2017-08-01T02:13:06.552Z,0
2017-08-01T02:14:15.826Z,0
2017-08-01T02:15:24.785Z,0
2017-08-01T02:16:34.069Z,0
2017-08-01T02:17:43.045Z,0
2017-08-01T02:18:52.332Z,0
2017-08-01T02:20:01.292Z,0
2017-08-01T02:21:10.579Z,0
2017-08-01T02:22:19.541Z,0
2017-08-01T02:23:28.504Z,0
2017-08-01T02:24:37.460Z,0
2017-08-01T02:25:46.415Z,0
2017-08-01T02:26:55.376Z,0
2017-08-01T02:28:04.343Z,0
2017-08-01T02:29:13.625Z,0
2017-08-01T02:30:22.590Z,0
2017-08-01T02:31:31.558Z,0
2017-08-01T02:32:40.517Z,0
2017-08-01T02:33:49.483Z,0
2017-08-01T02:34:58.452Z,0
2017-08-01T02:36:07.512Z,0
2017-08-01T02:37:16.477Z,0
2017-08-01T02:38:25.439Z,0
2017-08-01T02:39:34.402Z,0
2017-08-01T02:40:43.364Z,0
2017-08-01T02:41:52.330Z,0
2017-08-01T02:43:01.295Z,0
2017-08-01T02:44:10.244Z,0
2017-08-01T02:45:19.201Z,0
2017-08-01T02:46:28.171Z,0
2017-08-01T02:47:37.133Z,0
2017-08-01T02:48:46.102Z,0
2017-08-01T02:49:55.064Z,0
2017-08-01T02:51:04.028Z,0
2017-08-01T02:52:12.996Z,0
2017-08-01T02:53:21.953Z,0
2017-08-01T02:54:30.912Z,0
2017-08-01T02:55:39.878Z,0
2017-08-01T02:56:48.837Z,0
2017-08-01T02:57:57.796Z,0
2017-08-01T02:59:06.766Z,0
2017-08-01T03:00:15.722Z,0
2017-08-01T03:01:24.683Z,0
2017-08-01T03:02:33.993Z,0
2017-08-01T03:03:42.954Z,0
2017-08-01T03:04:51.905Z,0
2017-08-01T03:06:00.871Z,0
2017-08-01T03:07:09.849Z,0
2017-08-01T03:08:18.809Z,0
2017-08-01T03:09:27.765Z,0
2017-08-01T03:10:36.731Z,0
2017-08-01T03:11:45.694Z,0
2017-08-01T03:12:54.651Z,0
2017-08-01T03:14:03.614Z,0
2017-08-01T03:15:12.575Z,4
2017-08-01T03:16:21.869Z,0
2017-08-01T03:17:30.822Z,0
2017-08-01T03:18:39.783Z,4
2017-08-01T03:19:48.741Z,4
2017-08-01T03:20:57.711Z,4
2017-08-01T03:22:06.966Z,4
2017-08-01T03:23:15.921Z,8
2017-08-01T03:24:24.888Z,4
2017-08-01T03:25:33.855Z,8
2017-08-01T03:26:42.812Z,8
2017-08-01T03:27:51.781Z,8
2017-08-01T03:29:00.738Z,8
2017-08-01T03:30:10.035Z,12
2017-08-01T03:31:19.326Z,12
2017-08-01T03:32:28.294Z,8
2017-08-01T03:33:37.261Z,12
2017-08-01T03:34:46.222Z,12
2017-08-01T03:35:55.184Z,16
2017-08-01T03:37:04.143Z,12
2017-08-01T03:38:13.123Z,12
2017-08-01T03:39:22.115Z,12
2017-08-01T03:40:31.081Z,12
2017-08-01T03:41:40.042Z,12
2017-08-01T03:42:49.009Z,16
2017-08-01T03:43:57.988Z,16
2017-08-01T03:45:06.963Z,12
2017-08-01T03:46:15.923Z,16
2017-08-01T03:47:24.883Z,12
2017-08-01T03:48:33.837Z,16
2017-08-01T03:49:42.802Z,12
2017-08-01T03:50:51.761Z,12
2017-08-01T03:52:01.044Z,16
2017-08-01T03:53:10.028Z,16
2017-08-01T03:54:18.993Z,40
2017-08-01T03:55:27.952Z,52
2017-08-01T03:56:36.922Z,48
2017-08-01T03:57:45.895Z,40
2017-08-01T03:58:54.857Z,44
2017-08-01T04:00:03.814Z,68
2017-08-01T04:01:12.786Z,68
2017-08-01T04:02:21.752Z,60
2017-08-01T04:03:30.709Z,64
2017-08-01T04:04:39.672Z,56
2017-08-01T04:05:48.633Z,60
2017-08-01T04:06:57.596Z,48
2017-08-01T04:08:06.562Z,56
2017-08-01T04:09:15.526Z,72
2017-08-01T04:10:24.495Z,92
2017-08-01T04:11:33.457Z,56
2017-08-01T04:12:42.415Z,40
2017-08-01T04:13:51.375Z,32
2017-08-01T04:15:00.335Z,28
2017-08-01T04:16:09.330Z,24
2017-08-01T04:17:18.291Z,24
2017-08-01T04:18:27.247Z,20
2017-08-01T04:19:36.208Z,12
2017-08-01T04:20:45.496Z,8
2017-08-01T04:21:54.454Z,12
2017-08-01T04:23:03.410Z,20
2017-08-01T04:24:12.369Z,32
2017-08-01T04:25:21.320Z,52
2017-08-01T04:26:30.280Z,72
2017-08-01T04:27:39.249Z,92
2017-08-01T04:28:48.218Z,108
2017-08-01T04:29:57.188Z,116
2017-08-01T04:31:06.475Z,112
2017-08-01T04:32:15.436Z,112
2017-08-01T04:33:24.412Z,124
2017-08-01T04:34:33.386Z,112
2017-08-01T04:35:42.345Z,108
2017-08-01T04:36:51.356Z,116
2017-08-01T04:38:00.309Z,80
2017-08-01T04:39:09.271Z,68
2017-08-01T04:40:18.233Z,60
2017-08-01T04:41:27.185Z,56
2017-08-01T04:42:36.485Z,72
2017-08-01T04:43:45.445Z,76
2017-08-01T04:44:54.403Z,88
2017-08-01T04:46:03.377Z,92
2017-08-01T04:47:12.328Z,112
2017-08-01T04:48:21.281Z,88
2017-08-01T04:49:30.230Z,72
2017-08-01T04:50:39.184Z,76
2017-08-01T04:51:48.142Z,72
2017-08-01T04:52:57.107Z,56
2017-08-01T04:54:06.066Z,48
2017-08-01T04:55:15.026Z,40
2017-08-01T04:56:24.018Z,32
2017-08-01T04:57:32.976Z,20
2017-08-01T04:58:41.935Z,20
2017-08-01T04:59:50.889Z,20
2017-08-01T05:00:59.847Z,20
2017-08-01T05:02:09.129Z,20
2017-08-01T05:03:18.096Z,20
2017-08-01T05:04:27.064Z,32
2017-08-01T05:05:36.026Z,48
2017-08-01T05:06:44.989Z,76
2017-08-01T05:07:53.944Z,124
2017-08-01T05:09:02.923Z,184
2017-08-01T05:10:11.892Z,180
2017-08-01T05:11:20.848Z,200
2017-08-01T05:12:29.805Z,232
2017-08-01T05:13:38.763Z,276
2017-08-01T05:14:47.724Z,284
2017-08-01T05:15:57.010Z,268
2017-08-01T05:17:06.289Z,272
2017-08-01T05:18:15.245Z,244
2017-08-01T05:19:24.213Z,224
2017-08-01T05:20:33.174Z,204
2017-08-01T05:21:42.139Z,220
2017-08-01T05:22:51.087Z,256
2017-08-01T05:24:00.035Z,240
2017-08-01T05:25:08.991Z,232
2017-08-01T05:26:17.951Z,308
2017-08-01T05:27:26.909Z,308
2017-08-01T05:28:35.875Z,256
2017-08-01T05:29:44.830Z,276
2017-08-01T05:30:53.789Z,212
2017-08-01T05:32:02.744Z,180
2017-08-01T05:33:11.695Z,140
2017-08-01T05:34:20.650Z,120
2017-08-01T05:35:29.621Z,104
2017-08-01T05:36:38.576Z,96
2017-08-01T05:37:47.538Z,96
2017-08-01T05:38:56.496Z,104
2017-08-01T05:40:05.451Z,112
2017-08-01T05:41:14.412Z,144
2017-08-01T05:42:23.363Z,196
2017-08-01T05:43:32.344Z,240
2017-08-01T05:44:41.298Z,264
2017-08-01T05:45:50.256Z,316
2017-08-01T05:46:59.226Z,324
2017-08-01T05:48:08.193Z,292
2017-08-01T05:49:17.143Z,256
2017-08-01T05:50:26.093Z,236
2017-08-01T05:51:35.061Z,188
2017-08-01T05:52:44.020Z,176
2017-08-01T05:53:53.000Z,160
2017-08-01T05:55:01.963Z,144
2017-08-01T05:56:10.922Z,156
2017-08-01T05:57:19.880Z,140
2017-08-01T05:58:28.835Z,120
2017-08-01T05:59:38.118Z,108
2017-08-01T06:00:47.076Z,96
2017-08-01T06:01:56.042Z,88
2017-08-01T06:03:05.004Z,76
2017-08-01T06:04:13.957Z,72
2017-08-01T06:05:22.916Z,76
2017-08-01T06:06:31.886Z,72
2017-08-01T06:07:41.171Z,72
2017-08-01T06:08:50.120Z,64
2017-08-01T06:09:59.079Z,64
2017-08-01T06:11:08.030Z,76
2017-08-01T06:12:16.991Z,76
2017-08-01T06:13:25.953Z,80
2017-08-01T06:14:34.908Z,84
2017-08-01T06:15:43.864Z,88
2017-08-01T06:16:52.832Z,108
2017-08-01T06:18:01.789Z,124
2017-08-01T06:19:10.744Z,160
2017-08-01T06:20:19.701Z,208
2017-08-01T06:21:28.659Z,264
2017-08-01T06:22:37.617Z,312
2017-08-01T06:23:46.577Z,352
2017-08-01T06:24:55.533Z,368
2017-08-01T06:26:04.483Z,388
2017-08-01T06:27:13.427Z,416
2017-08-01T06:28:22.718Z,456
2017-08-01T06:29:31.679Z,468
2017-08-01T06:30:40.639Z,488
2017-08-01T06:31:49.591Z,512
2017-08-01T06:32:58.563Z,508
2017-08-01T06:34:07.524Z,520
2017-08-01T06:35:16.483Z,512
2017-08-01T06:36:25.770Z,492
2017-08-01T06:37:34.729Z,508
2017-08-01T06:38:43.695Z,540
2017-08-01T06:39:52.650Z,592
2017-08-01T06:41:01.615Z,656
2017-08-01T06:42:10.659Z,728
2017-08-01T06:43:19.609Z,856
2017-08-01T06:44:28.565Z,1040
2017-08-01T06:45:37.858Z,1196
2017-08-01T06:46:46.850Z,1316
2017-08-01T06:47:55.814Z,1340
2017-08-01T06:49:04.777Z,1392
2017-08-01T06:50:13.738Z,1384
2017-08-01T06:51:22.696Z,1420
2017-08-01T06:52:31.743Z,1444
2017-08-01T06:53:40.723Z,1484
2017-08-01T06:54:50.003Z,1524
2017-08-01T06:55:58.961Z,1480
2017-08-01T06:57:07.920Z,1476
2017-08-01T06:58:16.896Z,1532
2017-08-01T06:59:25.852Z,1556
2017-08-01T07:00:34.806Z,1496
2017-08-01T07:01:43.765Z,1484
2017-08-01T07:02:52.717Z,1532
2017-08-01T07:04:01.693Z,1572
2017-08-01T07:05:10.662Z,1832
2017-08-01T07:06:19.620Z,1912
2017-08-01T07:07:28.580Z,2064
2017-08-01T07:08:37.536Z,2016
2017-08-01T07:09:46.490Z,1732
2017-08-01T07:10:55.450Z,1760
2017-08-01T07:12:04.411Z,1712
2017-08-01T07:13:13.376Z,1752
2017-08-01T07:14:22.338Z,1680
2017-08-01T07:15:31.293Z,1468
2017-08-01T07:16:40.246Z,1388
2017-08-01T07:17:49.207Z,1400
2017-08-01T07:18:58.169Z,1468
2017-08-01T07:20:07.139Z,1464
2017-08-01T07:21:16.102Z,1512
2017-08-01T07:22:25.094Z,1604
2017-08-01T07:23:34.083Z,1592
2017-08-01T07:24:44.284Z,1604
2017-08-01T07:25:53.249Z,1652
2017-08-01T07:27:02.217Z,1812
2017-08-01T07:28:11.169Z,1968
2017-08-01T07:29:20.124Z,2092
2017-08-01T07:30:29.086Z,1972
2017-08-01T07:31:38.048Z,1940
2017-08-01T07:32:47.008Z,1496
2017-08-01T07:33:55.968Z,1192
2017-08-01T07:35:04.921Z,1124
2017-08-01T07:36:13.884Z,1348
2017-08-01T07:37:22.834Z,1496
2017-08-01T07:38:31.797Z,1416
2017-08-01T07:39:40.771Z,1356
2017-08-01T07:40:49.736Z,1376
2017-08-01T07:41:58.821Z,1520
2017-08-01T07:43:08.864Z,1496
2017-08-01T07:44:17.996Z,1416
2017-08-01T07:45:27.037Z,1604
2017-08-01T07:46:36.023Z,1920
2017-08-01T07:47:45.060Z,1840
2017-08-01T07:48:54.049Z,1716
2017-08-01T07:50:03.018Z,1756
2017-08-01T07:51:11.986Z,2024
2017-08-01T07:52:21.115Z,2700
2017-08-01T07:53:30.137Z,3140
2017-08-01T07:54:39.198Z,2636
2017-08-01T07:55:48.284Z,1952
2017-08-01T07:56:57.514Z,1460
2017-08-01T07:58:06.531Z,1208
2017-08-01T07:59:15.617Z,1052
2017-08-01T08:00:24.577Z,1200
2017-08-01T08:01:33.541Z,1204
2017-08-01T08:02:42.595Z,1280
2017-08-01T08:03:51.686Z,1636
2017-08-01T08:05:00.740Z,2068
2017-08-01T08:06:09.730Z,2416
2017-08-01T08:07:18.725Z,2612
2017-08-01T08:08:27.717Z,2348
2017-08-01T08:09:36.701Z,2256
2017-08-01T08:10:45.700Z,1820
2017-08-01T08:11:54.731Z,1356
2017-08-01T08:13:03.746Z,1260
2017-08-01T08:14:12.760Z,1180
2017-08-01T08:15:21.879Z,1372
2017-08-01T08:16:30.881Z,1396
2017-08-01T08:17:39.837Z,1412
2017-08-01T08:18:48.908Z,1776
2017-08-01T08:19:57.962Z,1408
2017-08-01T08:21:07.276Z,1528
2017-08-01T08:22:16.305Z,1688
2017-08-01T08:23:25.636Z,1908
2017-08-01T08:24:34.633Z,1744
2017-08-01T08:25:43.668Z,1812
2017-08-01T08:26:52.767Z,1784
2017-08-01T08:28:01.744Z,2040
2017-08-01T08:29:10.798Z,1908
2017-08-01T08:30:19.765Z,1360
2017-08-01T08:31:28.963Z,1480
2017-08-01T08:32:38.052Z,1496
2017-08-01T08:33:47.146Z,1472
2017-08-01T08:34:56.301Z,1448
2017-08-01T08:36:05.326Z,1472
2017-08-01T08:37:14.482Z,1500
2017-08-01T08:38:23.516Z,1528
2017-08-01T08:39:32.884Z,1556
2017-08-01T08:40:41.936Z,1608
2017-08-01T08:41:51.033Z,1708
2017-08-01T08:43:00.102Z,1724
2017-08-01T08:44:09.407Z,1640
2017-08-01T08:45:18.464Z,2052
2017-08-01T08:46:27.623Z,2104
2017-08-01T08:47:36.685Z,1884
2017-08-01T08:48:45.656Z,1892
2017-08-01T08:49:54.731Z,2204
2017-08-01T08:51:03.786Z,2136
2017-08-01T08:52:12.882Z,2000
2017-08-01T08:53:22.027Z,1840
2017-08-01T08:54:31.198Z,1872
2017-08-01T08:55:40.421Z,1664
2017-08-01T08:56:49.726Z,2496
2017-08-01T08:57:58.892Z,3004
2017-08-01T08:59:07.956Z,3536
2017-08-01T09:00:17.194Z,3472
2017-08-01T09:01:26.300Z,3424
2017-08-01T09:02:35.430Z,3416
2017-08-01T09:03:44.534Z,3564
2017-08-01T09:04:53.906Z,3564
2017-08-01T09:06:03.142Z,3392
2017-08-01T09:07:12.306Z,3140
2017-08-01T09:08:21.352Z,2236
2017-08-01T09:09:30.374Z,1808
2017-08-01T09:10:39.536Z,1964
2017-08-01T09:11:48.607Z,2024
2017-08-01T09:12:57.729Z,1932
2017-08-01T09:14:06.702Z,1900
2017-08-01T09:15:15.835Z,1908
2017-08-01T09:16:24.919Z,2000
2017-08-01T09:17:33.987Z,1800
2017-08-01T09:18:43.040Z,1856
2017-08-01T09:19:52.096Z,1752
2017-08-01T09:21:01.092Z,1616
2017-08-01T09:22:10.058Z,1504
2017-08-01T09:23:19.081Z,1388
2017-08-01T09:24:28.071Z,1280
2017-08-01T09:25:37.033Z,1372
2017-08-01T09:26:46.003Z,1344
2017-08-01T09:27:54.972Z,1568
2017-08-01T09:29:03.940Z,1588
2017-08-01T09:30:13.143Z,1716
2017-08-01T09:31:22.278Z,1644
2017-08-01T09:32:31.340Z,1508
2017-08-01T09:33:40.324Z,1460
2017-08-01T09:34:49.505Z,1896
2017-08-01T09:35:58.533Z,1752
2017-08-01T09:37:07.497Z,1680
2017-08-01T09:38:16.634Z,1940
2017-08-01T09:39:25.920Z,2016
2017-08-01T09:40:34.914Z,2060
2017-08-01T09:41:44.060Z,2048
2017-08-01T09:42:53.051Z,2204
2017-08-01T09:44:02.056Z,2248
2017-08-01T09:45:11.013Z,2192
2017-08-01T09:46:19.975Z,1916
2017-08-01T09:47:28.929Z,2008
2017-08-01T09:48:37.893Z,1724
2017-08-01T09:49:46.858Z,1636
2017-08-01T09:50:55.829Z,1576
2017-08-01T09:52:04.800Z,1528
2017-08-01T09:53:13.758Z,1496
2017-08-01T09:54:22.718Z,1496
2017-08-01T09:55:31.684Z,1504
2017-08-01T09:56:40.648Z,1520
2017-08-01T09:57:49.602Z,1484
2017-08-01T09:58:58.571Z,1456
2017-08-01T10:00:07.536Z,1468
2017-08-01T10:01:16.644Z,1468
2017-08-01T10:02:25.611Z,1448
2017-08-01T10:03:34.567Z,1420
2017-08-01T10:04:43.535Z,1412
2017-08-01T10:05:52.823Z,1480
2017-08-01T10:07:01.803Z,1396
2017-08-01T10:08:10.758Z,1412
2017-08-01T10:09:19.716Z,1396
2017-08-01T10:10:28.703Z,1436
2017-08-01T10:11:37.667Z,1436
2017-08-01T10:12:46.628Z,1424
2017-08-01T10:13:55.589Z,1424
2017-08-01T10:15:04.561Z,1416
2017-08-01T10:16:13.524Z,1404
2017-08-01T10:17:22.487Z,1400
2017-08-01T10:18:31.454Z,1400
2017-08-01T10:19:40.418Z,1424
2017-08-01T10:20:49.414Z,1420
2017-08-01T10:21:58.379Z,1400
2017-08-01T10:23:07.654Z,1392
2017-08-01T10:24:16.952Z,1492
2017-08-01T10:25:25.918Z,1436
2017-08-01T10:26:34.882Z,1480
2017-08-01T10:27:43.854Z,1404
2017-08-01T10:28:52.817Z,1420
2017-08-01T10:30:01.782Z,1436
2017-08-01T10:31:10.769Z,1432
2017-08-01T10:32:19.727Z,1416
2017-08-01T10:33:28.691Z,1416
2017-08-01T10:34:37.745Z,1444
2017-08-01T10:35:46.701Z,1452
2017-08-01T10:36:55.657Z,1496
2017-08-01T10:38:04.939Z,1432
2017-08-01T10:39:13.910Z,1428
2017-08-01T10:40:22.875Z,1420
2017-08-01T10:41:31.835Z,1436
2017-08-01T10:42:40.818Z,1452
2017-08-01T10:43:49.782Z,1416
2017-08-01T10:44:58.747Z,1468
2017-08-01T10:46:07.715Z,1424
2017-08-01T10:47:16.695Z,1500
2017-08-01T10:48:25.655Z,1476
2017-08-01T10:49:34.619Z,1508
2017-08-01T10:50:43.595Z,1464
2017-08-01T10:51:52.568Z,1460
2017-08-01T10:53:01.522Z,1448
2017-08-01T10:54:10.479Z,1440
2017-08-01T10:55:19.446Z,1460
2017-08-01T10:56:28.412Z,1472
2017-08-01T10:57:37.371Z,1452
2017-08-01T10:58:46.383Z,1456
2017-08-01T10:59:55.493Z,1432
2017-08-01T11:01:04.788Z,1420
2017-08-01T11:02:13.799Z,1412
2017-08-01T11:03:22.767Z,1436
2017-08-01T11:04:31.735Z,1424
2017-08-01T11:05:40.707Z,1448
2017-08-01T11:06:49.662Z,1460
2017-08-01T11:07:58.618Z,1452
2017-08-01T11:09:07.584Z,1440
2017-08-01T11:10:16.546Z,1412
2017-08-01T11:11:25.508Z,1420
2017-08-01T11:12:34.474Z,1420
2017-08-01T11:13:43.446Z,1420
2017-08-01T11:14:52.410Z,1440
2017-08-01T11:16:01.380Z,1440
2017-08-01T11:17:10.343Z,1464
2017-08-01T11:18:19.301Z,1464
2017-08-01T11:19:28.300Z,1464
2017-08-01T11:20:37.260Z,1432
2017-08-01T11:21:46.216Z,1412
2017-08-01T11:22:55.175Z,1412
2017-08-01T11:24:04.140Z,1444
2017-08-01T11:25:13.431Z,1436
2017-08-01T11:26:22.391Z,1424
2017-08-01T11:27:31.344Z,1436
2017-08-01T11:28:40.317Z,1416
2017-08-01T11:29:49.290Z,1516
2017-08-01T11:30:58.247Z,1552
2017-08-01T11:32:07.209Z,1152
2017-08-01T11:33:16.186Z,1124
2017-08-01T11:34:25.371Z,1728
2017-08-01T11:35:34.332Z,1608
2017-08-01T11:36:43.289Z,1472
2017-08-01T11:37:52.253Z,1468
2017-08-01T11:39:01.209Z,1456
2017-08-01T11:40:10.172Z,1428
2017-08-01T11:41:19.299Z,1464
2017-08-01T11:42:28.381Z,1412
2017-08-01T11:43:37.419Z,1620
2017-08-01T11:44:46.474Z,1600
2017-08-01T11:45:55.438Z,1364
2017-08-01T11:47:04.797Z,1364
2017-08-01T11:48:13.910Z,1368
2017-08-01T11:49:23.062Z,1376
2017-08-01T11:50:32.030Z,1352
2017-08-01T11:51:45.693Z,1340
2017-08-01T11:53:07.106Z,1364
2017-08-01T11:54:31.050Z,1348
2017-08-01T11:55:47.459Z,1332
2017-08-01T11:56:57.436Z,1324
2017-08-01T11:58:06.396Z,1320
2017-08-01T11:59:15.359Z,1344
2017-08-01T12:00:24.326Z,1288
2017-08-01T12:01:33.287Z,1144
2017-08-01T12:02:42.246Z,1292
2017-08-01T12:03:51.205Z,1320
2017-08-01T12:05:00.180Z,1316
2017-08-01T12:06:09.145Z,1176
2017-08-01T12:07:18.110Z,1136
2017-08-01T12:08:27.072Z,1144
2017-08-01T12:09:36.029Z,1364
2017-08-01T12:10:44.983Z,1520
2017-08-01T12:11:53.943Z,1436
2017-08-01T12:13:02.914Z,1432
2017-08-01T12:14:11.886Z,1372
2017-08-01T12:15:20.849Z,1344
2017-08-01T12:16:29.818Z,1320
2017-08-01T12:17:38.793Z,1280
2017-08-01T12:18:47.764Z,1272
2017-08-01T12:19:56.728Z,1248
2017-08-01T12:21:05.706Z,836
2017-08-01T12:22:14.668Z,796
2017-08-01T12:23:23.953Z,1512
2017-08-01T12:24:32.908Z,1880
2017-08-01T12:25:41.872Z,1304
2017-08-01T12:26:50.840Z,1404
2017-08-01T12:27:59.818Z,1352
2017-08-01T12:29:08.774Z,1224
2017-08-01T12:30:17.740Z,1216
2017-08-01T12:31:26.705Z,1208
2017-08-01T12:32:35.676Z,1212
2017-08-01T12:33:44.652Z,1204
2017-08-01T12:34:53.614Z,1200
2017-08-01T12:36:02.590Z,1204
2017-08-01T12:37:11.556Z,1192
2017-08-01T12:38:20.518Z,1192
2017-08-01T12:39:29.476Z,1196
2017-08-01T12:40:38.753Z,1200
2017-08-01T12:41:47.719Z,1200
2017-08-01T12:42:56.691Z,1184
2017-08-01T12:44:05.657Z,1188
2017-08-01T12:45:14.627Z,1232
2017-08-01T12:46:23.590Z,1216
2017-08-01T12:47:32.552Z,1240
2017-08-01T12:48:41.515Z,1252
2017-08-01T12:49:50.476Z,1344
2017-08-01T12:50:59.445Z,1664
2017-08-01T12:52:08.738Z,1292
2017-08-01T12:53:17.704Z,1388
2017-08-01T12:54:26.663Z,1552
2017-08-01T12:55:35.628Z,1544
2017-08-01T12:56:44.594Z,1372
2017-08-01T12:57:53.563Z,1300
2017-08-01T12:59:02.530Z,1280
2017-08-01T13:00:11.508Z,1584
2017-08-01T13:01:20.477Z,1868
2017-08-01T13:02:29.439Z,1732
2017-08-01T13:03:38.405Z,1296
2017-08-01T13:04:47.371Z,1380
2017-08-01T13:05:56.338Z,1760
2017-08-01T13:07:05.302Z,1668
2017-08-01T13:08:14.270Z,1940
2017-08-01T13:09:23.234Z,1992
2017-08-01T13:10:32.196Z,2240
2017-08-01T13:11:41.159Z,2228
2017-08-01T13:12:50.123Z,2328
2017-08-01T13:13:59.088Z,2180
2017-08-01T13:15:08.056Z,2400
2017-08-01T13:16:17.027Z,2056
2017-08-01T13:17:25.991Z,1960
2017-08-01T13:18:34.952Z,1600
2017-08-01T13:19:44.241Z,1444
2017-08-01T13:20:53.211Z,1392
2017-08-01T13:22:02.180Z,1408
2017-08-01T13:23:11.139Z,912
2017-08-01T13:24:20.099Z,1280
2017-08-01T13:25:29.384Z,1044
2017-08-01T13:26:38.344Z,1388
2017-08-01T13:27:47.298Z,888
2017-08-01T13:28:56.268Z,1076
2017-08-01T13:30:05.234Z,1504
2017-08-01T13:31:14.191Z,1404
2017-08-01T13:32:23.159Z,1528
2017-08-01T13:33:32.110Z,1388
2017-08-01T13:34:41.081Z,1112
2017-08-01T13:35:50.046Z,1580
2017-08-01T13:36:59.010Z,1936
2017-08-01T13:38:07.978Z,1880
2017-08-01T13:39:16.943Z,1804
2017-08-01T13:40:25.898Z,1692
2017-08-01T13:41:34.861Z,1936
2017-08-01T13:42:43.825Z,2024
2017-08-01T13:43:52.796Z,1948
2017-08-01T13:45:01.766Z,2008
2017-08-01T13:46:10.721Z,1980
2017-08-01T13:47:19.691Z,1968
2017-08-01T13:48:28.658Z,1964
2017-08-01T13:49:37.630Z,1988
2017-08-01T13:50:46.592Z,1924
2017-08-01T13:51:55.899Z,2012
2017-08-01T13:53:04.878Z,2604
2017-08-01T13:54:13.851Z,2376
2017-08-01T13:55:22.820Z,2620
2017-08-01T13:56:31.781Z,2364
2017-08-01T13:57:40.741Z,2500
2017-08-01T13:58:49.713Z,2388
2017-08-01T13:59:58.673Z,2400
2017-08-01T14:01:07.992Z,1812
2017-08-01T14:02:16.957Z,1888
2017-08-01T14:03:25.924Z,1824
2017-08-01T14:04:34.892Z,1796
2017-08-01T14:05:43.865Z,2468
2017-08-01T14:06:53.170Z,2392
2017-08-01T14:08:02.126Z,2600
2017-08-01T14:09:11.121Z,2144
2017-08-01T14:10:20.152Z,1480
2017-08-01T14:11:29.175Z,1348
2017-08-01T14:12:38.480Z,1228
2017-08-01T14:13:47.452Z,1312
2017-08-01T14:14:56.435Z,1580
2017-08-01T14:16:05.417Z,1724
2017-08-01T14:17:14.401Z,1460
2017-08-01T14:18:23.393Z,1828
2017-08-01T14:19:32.383Z,1728
2017-08-01T14:20:41.363Z,1732
2017-08-01T14:21:50.356Z,1928
2017-08-01T14:22:59.343Z,2148
2017-08-01T14:24:08.344Z,1576
2017-08-01T14:25:17.338Z,1364
2017-08-01T14:26:26.334Z,1736
2017-08-01T14:27:35.333Z,1564
2017-08-01T14:28:44.322Z,1792
2017-08-01T14:29:53.316Z,1860
2017-08-01T14:31:02.631Z,1452
2017-08-01T14:32:11.622Z,1208
2017-08-01T14:33:20.609Z,1508
2017-08-01T14:34:29.623Z,1488
2017-08-01T14:35:38.614Z,1448
2017-08-01T14:36:47.599Z,1436
2017-08-01T14:37:56.610Z,1304
2017-08-01T14:39:05.595Z,1296
2017-08-01T14:40:14.586Z,1208
2017-08-01T14:41:23.593Z,1148
2017-08-01T14:42:32.576Z,756
2017-08-01T14:43:41.578Z,1032
2017-08-01T14:44:50.609Z,1136
2017-08-01T14:45:59.865Z,1128
2017-08-01T14:47:08.855Z,1148
2017-08-01T14:48:17.855Z,1140
2017-08-01T14:49:26.862Z,1124
2017-08-01T14:50:35.837Z,1072
2017-08-01T14:51:44.812Z,1064
2017-08-01T14:52:53.806Z,1044
2017-08-01T14:54:02.854Z,1040
2017-08-01T14:55:11.841Z,1036
2017-08-01T14:56:20.833Z,1048
2017-08-01T14:57:29.821Z,1044
2017-08-01T14:58:38.799Z,1020
2017-08-01T14:59:47.799Z,944
2017-08-01T15:00:56.789Z,968
2017-08-01T15:02:05.773Z,988
2017-08-01T15:03:14.782Z,988
2017-08-01T15:04:23.782Z,1048
2017-08-01T15:05:32.770Z,1020
2017-08-01T15:06:41.761Z,992
2017-08-01T15:07:50.752Z,976
2017-08-01T15:08:59.738Z,612
2017-08-01T15:10:08.726Z,820
2017-08-01T15:11:17.712Z,564
2017-08-01T15:12:26.702Z,832
2017-08-01T15:13:35.744Z,860
2017-08-01T15:14:44.727Z,624
2017-08-01T15:15:53.713Z,640
2017-08-01T15:17:02.697Z,932
2017-08-01T15:18:11.685Z,816
2017-08-01T15:19:20.991Z,792
2017-08-01T15:20:29.978Z,700
2017-08-01T15:21:38.979Z,972
2017-08-01T15:22:47.972Z,1068
2017-08-01T15:23:56.961Z,1008
2017-08-01T15:25:05.950Z,1052
2017-08-01T15:26:14.940Z,1112
2017-08-01T15:27:23.937Z,1100
2017-08-01T15:28:32.928Z,1252
2017-08-01T15:29:41.910Z,1344
2017-08-01T15:30:50.904Z,1304
2017-08-01T15:31:59.983Z,1360
2017-08-01T15:33:09.307Z,1224
2017-08-01T15:34:18.613Z,1160
2017-08-01T15:35:27.600Z,980
2017-08-01T15:36:36.666Z,928
2017-08-01T15:37:45.659Z,924
2017-08-01T15:38:54.647Z,884
2017-08-01T15:40:03.644Z,808
2017-08-01T15:41:12.623Z,868
2017-08-01T15:42:21.592Z,1028
2017-08-01T15:43:30.557Z,840
2017-08-01T15:44:39.516Z,824
2017-08-01T15:45:48.474Z,820
2017-08-01T15:46:57.430Z,816
2017-08-01T15:48:06.387Z,792
2017-08-01T15:49:15.350Z,788
2017-08-01T15:50:24.325Z,828
2017-08-01T15:51:33.499Z,824